• Join FlightAware (Why Join?)
  • Login
  • US Flag 
08:18AM EDT


 

Airport Tracker/Info


-or-


 

Live Flight TrackerFlight Track Log ✈ N75AW ✈ 04-Jun-2013 ✈ KAPF - KTLH

Flight Track Log - Related Links

Times and Time Zones

All times are in EDT time to prevent confusion due to time zone crossing. See the N75AW flight status page for this flight to view local times or setup timezone preferences in your user account.

Time Position Orientation Groundspeed Altitude Reporting Facility
EDT Latitude Longitude Course Direction KTS MPH feet Rate Location/Type
11:03AM 26.0986 -81.6914 354° North 164 189 3,800  Level Miami Center
11:04AM 26.1283 -81.6742 27° Northeast 203 234 5,800 1,860 Climbing Miami Center
11:05AM 26.1803 -81.6856 349° North 196 226 7,600 1,800 Climbing Miami Center
11:06AM 26.2322 -81.6947 351° North 191 220 9,500 1,800 Climbing Miami Center
11:07AM 26.2819 -81.7058 349° North 191 220 11,300 1,620 Climbing Miami Center
11:08AM 26.5561 -81.8155 354° North  Level FlightAware Approximate
11:08AM 26.3358 -81.7175 349° North 185 213 12,800  Level Miami Center
11:09AM 26.3897 -81.7267 351° North 185 213 14,100 1,380 Climbing Miami Center
11:10AM 26.4500 -81.7406 348° North 202 232 15,600 1,500 Climbing Miami Center
11:11AM 26.5122 -81.7503 352° North 207 238 17,100 1,380 Climbing Miami Center
11:12AM 26.5681 -81.7617 350° North 212 244 18,400 1,260 Climbing Miami Center
11:13AM 26.6283 -81.7711 352° North 212 244 19,700 1,200 Climbing Miami Center
11:14AM 26.6864 -81.7831 350° North 212 244 20,900 1,140 Climbing Miami Center
11:15AM 26.7425 -81.7947 349° North 212 244 22,000 600 Climbing Miami Center
11:16AM 26.8067 -81.8042 353° North 213 245 22,100  Climbing Miami Center
11:17AM 26.8794 -81.8167 351° North 245 282 22,100  Level Miami Center
11:18AM 26.9603 -81.8342 349° North 271 312 22,100  Level Miami Center
11:19AM 27.0392 -81.8444 353° North 291 335 22,100  Level Miami Center
11:20AM 27.1181 -81.8594 350° North 291 335 22,100  Level Miami Center
11:21AM 27.1947 -81.8744 350° North 291 335 22,100  Level Miami Center
11:22AM 27.2672 -81.8894 350° North 286 329 22,100  Level Miami Center
11:23AM 27.3442 -81.8997 353° North 286 329 22,100  Level Miami Center
11:24AM 27.4292 -81.9175 349° North 286 329 22,100  Level Miami Center
11:25AM 27.5078 -81.9328 350° North 286 329 22,100  Level Miami Center
11:26AM 27.5847 -81.9453 352° North 281 323 22,100  Level Miami Center
11:28AM 27.7272 -81.9736 350° North 282 325 22,100  Level Jacksonville Center
11:29AM 27.7983 -81.9847 352° North 282 325 22,100  Level Jacksonville Center
11:30AM 27.8756 -81.9981 351° North 282 325 22,100  Level Jacksonville Center
11:31AM 27.9508 -82.0139 349° North 277 319 22,100  Level Jacksonville Center
11:32AM 28.0261 -82.0439 341° North 277 319 22,100  Level Jacksonville Center
11:33AM 28.0828 -82.1044 317° Northwest 272 313 22,100  Level Jacksonville Center
11:34AM 28.1436 -82.1628 320° Northwest 277 319 22,100  Level Jacksonville Center
11:35AM 28.2067 -82.2167 323° Northwest 283 326 22,100  Level Jacksonville Center
11:36AM 28.2717 -82.2750 322° Northwest 283 326 22,100  Level Jacksonville Center
11:37AM 28.3344 -82.3314 322° Northwest 283 326 22,100  Level Jacksonville Center
11:38AM 28.3953 -82.3875 321° Northwest 283 326 22,100  Level Jacksonville Center
11:39AM 28.4581 -82.4464 320° Northwest 283 326 22,100  Level Jacksonville Center
11:40AM 28.5208 -82.5003 323° Northwest 283 326 22,100  Level Jacksonville Center
11:41AM 28.5836 -82.5569 322° Northwest 283 326 22,100  Level Jacksonville Center
11:42AM 28.6464 -82.6133 322° Northwest 283 326 22,100  Level Jacksonville Center
11:43AM 28.7089 -82.6678 323° Northwest 283 326 22,100  Level Jacksonville Center
11:44AM 28.7675 -82.7267 319° Northwest 283 326 22,100  Level Jacksonville Center
11:45AM 28.8197 -82.7906 313° West 283 326 22,100  Level Jacksonville Center
11:46AM 28.8761 -82.8594 313° West 283 326 22,100 -300 Level Jacksonville Center
11:47AM 28.9306 -82.9258 313° West 288 331 21,600 -660 Descending Jacksonville Center
11:48AM 28.9867 -83.0017 310° West 298 343 20,800 -720 Descending Jacksonville Center
11:49AM 29.0514 -83.0683 318° Northwest 298 343 20,200 -600 Descending Jacksonville Center
11:50AM 29.1181 -83.1278 322° Northwest 303 349 19,700 -600 Descending Jacksonville Center
11:51AM 29.1847 -83.1853 323° Northwest 303 349 19,100 -600 Descending Jacksonville Center
11:52AM 29.2536 -83.2425 324° Northwest 303 349 18,500 -540 Descending Jacksonville Center
11:53AM 29.3222 -83.3022 323° Northwest 303 349 18,100 -300 Descending Jacksonville Center
11:54AM 29.3847 -83.3597 321° Northwest 297 342 17,900 -780 Descending Jacksonville Center
11:55AM 29.4553 -83.4150 326° Northwest 297 342 16,600 -1,500 Descending Jacksonville Center
11:56AM 29.5239 -83.4797 321° Northwest 302 348 15,000 -1,500 Descending Jacksonville Center
11:57AM 29.5925 -83.5375 324° Northwest 307 353 13,600 -1,320 Descending Jacksonville Center
11:58AM 29.6592 -83.5928 324° Northwest 302 348 12,400 -1,200 Descending Jacksonville Center
11:59AM 29.7214 -83.6483 322° Northwest 297 342 11,200 -660 Descending Jacksonville Center
12:00PM 29.7836 -83.7039 322° Northwest 292 336 11,100 -60 Descending Jacksonville Center
12:01PM 29.8439 -83.7547 324° Northwest 286 329 11,100  Level Jacksonville Center
12:02PM 29.9000 -83.8056 322° Northwest 276 318 11,100  Level Jacksonville Center
12:03PM 29.9603 -83.8517 326° Northwest 265 305 11,100 -600 Level Jacksonville Center
12:04PM 30.0203 -83.8978 326° Northwest 265 305 10,000 -1,440 Descending Jacksonville Center
12:05PM 30.0847 -83.9489 326° Northwest 265 305 8,300 -1,560 Descending Jacksonville Center
12:06PM 30.1469 -83.9950 327° Northwest 271 312 6,900 -1,380 Descending Jacksonville Center
12:07PM 30.2072 -84.0342 331° Northwest 261 300 5,600 -1,500 Descending Jacksonville Center
12:08PM 30.2694 -84.0592 341° North 241 277 4,000 -1,260 Descending Jacksonville Center
12:09PM 30.3256 -84.0886 336° Northwest 231 266 3,100 -900 Descending Jacksonville Center
12:11PM 30.3558 -84.1999 323° Northwest  Level Estimated
12:18PM 30.3833 -84.3500 180° South  Level FlightAware Approximate
12:19PM 30.3967 -84.3509 180° South  Level Estimated
12:20PM 30.3967 -84.3509 180° South  Level Estimated
12:21PM 30.3967 -84.3509 180° South  Level Estimated
12:22PM 30.3967 -84.3509 180° South  Level Estimated
12:23PM 30.3967 -84.3509 180° South  Level Estimated